• Join FlightAware (Why Join?)
  • Login
  • US Flag 
05:30AM EST


 

Airport Tracker/Info


-or-


 

Live Flight TrackerFlight Track Log ✈ SKW6465 ✈ 09-May-2013 ✈ KSLC - KLAX

Flight Track Log - Related Links

Times and Time Zones

All times are in EDT time to prevent confusion due to time zone crossing. See the SKW6465 flight status page for this flight to view local times or setup timezone preferences in your user account.

Time Position Orientation Groundspeed Altitude Reporting Facility
EDT Latitude Longitude Course Direction KTS MPH feet Rate Location/Type
08:01AM 40.8108 -112.0006 201° Southwest 174 200 5,000  Level Salt Lake Center
08:02AM 40.8344 -112.0664 295° West 224 258 6,600 1,440 Climbing Salt Lake Center
08:03AM 40.8317 -112.0792 254° West 232 267 7,000 1,860 Climbing Salt Lake Center
08:03AM 40.8197 -112.1675 260° West 275 316 8,500 1,680 Climbing Salt Lake Center
08:04AM 40.8172 -112.1772 251° West 276 318 8,700 1,800 Climbing Salt Lake Center
08:05AM 40.7681 -112.2619 233° Southwest 305 351 10,800 1,920 Climbing Salt Lake Center
08:06AM 40.4281 -112.3311 189° South  Level FlightAware Approximate
08:06AM 40.6844 -112.2900 194° South 311 358 12,600  Level Salt Lake Center
08:07AM 40.3162 -112.3669 201° Southwest  Level FlightAware Approximate
08:07AM 40.5936 -112.3064 188° South 327 376 14,400  Level Salt Lake Center
08:08AM 40.4994 -112.3242 188° South 342 394 16,000 1,500 Climbing Salt Lake Center
08:09AM 40.4017 -112.3453 189° South 355 409 17,500 1,740 Climbing Salt Lake Center
08:10AM 40.2861 -112.3944 198° South 366 421 19,600 1,740 Climbing Salt Lake Center
08:11AM 40.1939 -112.4603 209° Southwest 376 433 21,000 1,260 Climbing Salt Lake Center
08:12AM 40.0989 -112.5267 208° Southwest 388 447 22,200 1,260 Climbing Salt Lake Center
08:13AM 40.0039 -112.5933 208° Southwest 388 447 23,600 1,200 Climbing Salt Lake Center
08:14AM 39.9094 -112.6611 209° Southwest 387 445 24,700 900 Climbing Salt Lake Center
08:15AM 39.8122 -112.7300 209° Southwest 391 450 25,500 840 Climbing Salt Lake Center
08:16AM 39.7108 -112.7967 207° Southwest 401 461 26,400 720 Climbing Salt Lake Center
08:17AM 39.6028 -112.8408 197° South 417 480 27,000 600 Climbing Salt Lake Center
08:18AM 39.4925 -112.8794 195° South 413 475 27,700 660 Climbing Salt Lake Center
08:19AM 39.3800 -112.9167 194° South 414 476 28,400 600 Climbing Salt Lake Center
08:20AM 39.2672 -112.9544 195° South 419 482 29,000 540 Climbing Salt Lake Center
08:21AM 39.1519 -112.9936 195° South 425 489 29,500 660 Climbing Salt Lake Center
08:22AM 39.0372 -113.0336 195° South 427 491 30,400 780 Climbing Salt Lake Center
08:23AM 38.9231 -113.0717 195° South 427 491 31,100 720 Climbing Salt Lake Center
08:24AM 38.8119 -113.1039 193° South 420 483 31,900 420 Climbing Salt Lake Center
08:25AM 38.7003 -113.1369 193° South 415 478 32,000  Climbing Salt Lake Center
08:26AM 38.5836 -113.1728 194° South 426 490 32,000  Level Salt Lake Center
08:27AM 38.4639 -113.2117 194° South 440 506 32,000  Level Salt Lake Center
08:28AM 38.3419 -113.2500 194° South 450 518 32,000  Level Salt Lake Center
08:29AM 38.2219 -113.2875 194° South 448 516 32,000  Level Salt Lake Center
08:30AM 38.1019 -113.3242 194° South 446 513 32,000  Level Salt Lake Center
08:31AM 37.9861 -113.3611 194° South 441 507 32,000  Level Salt Lake Center
08:32AM 37.8742 -113.4064 198° South 435 501 32,000  Level Salt Lake Center
08:33AM 37.7508 -113.5058 213° Southwest 442 509 32,000  Level Salt Lake Center
08:34AM 37.6481 -113.5853 211° Southwest 438 504 32,000  Level Salt Lake Center
08:35AM 37.5444 -113.6664 212° Southwest 440 506 32,000  Level Salt Lake Center
08:36AM 37.4406 -113.7478 212° Southwest 442 509 32,000  Level Salt Lake Center
08:37AM 37.3375 -113.8292 212° Southwest 441 507 32,000  Level Salt Lake Center
08:38AM 37.2339 -113.9103 212° Southwest 440 506 32,000  Level Salt Lake Center
08:39AM 37.1300 -113.9903 212° Southwest 440 506 32,000  Level Salt Lake Center
08:40AM 37.0264 -114.0717 212° Southwest 440 506 32,000  Level Salt Lake Center
08:41AM 36.9244 -114.1536 213° Southwest 439 505 32,000  Level Salt Lake Center
08:42AM 36.8208 -114.2333 212° Southwest 438 504 32,000  Level Salt Lake Center
08:43AM 36.6864 -114.3347 211° Southwest 438 504 32,000  Level Los Angeles Center
08:44AM 36.5847 -114.4142 212° Southwest 434 499 32,000  Level Los Angeles Center
08:45AM 36.4811 -114.4931 211° Southwest 434 499 32,000  Level Los Angeles Center
08:46AM 36.3769 -114.5736 212° Southwest 437 503 32,000  Level Los Angeles Center
08:47AM 36.2736 -114.6517 211° Southwest 434 499 32,000  Level Los Angeles Center
08:48AM 36.1700 -114.7311 212° Southwest 435 501 32,000  Level Los Angeles Center
08:49AM 36.0669 -114.8083 211° Southwest 431 496 32,000  Level Los Angeles Center
08:50AM 35.9703 -114.8978 217° Southwest 431 496 32,000  Level Los Angeles Center
08:51AM 35.8889 -115.0075 228° Southwest 429 494 32,000  Level Los Angeles Center
08:52AM 35.8069 -115.1167 227° Southwest 430 495 32,000  Level Los Angeles Center
08:53AM 35.7275 -115.2261 228° Southwest 427 491 32,000  Level Los Angeles Center
08:54AM 35.6489 -115.3339 228° Southwest 423 487 32,000  Level Los Angeles Center
08:55AM 35.5708 -115.4386 228° Southwest 417 480 32,000  Level Los Angeles Center
08:56AM 35.4925 -115.5442 228° Southwest 416 479 32,000  Level Los Angeles Center
08:57AM 35.4167 -115.6467 228° Southwest 411 473 32,000  Level Los Angeles Center
08:58AM 35.3406 -115.7469 227° Southwest 405 466 32,000  Level Los Angeles Center
08:59AM 35.2658 -115.8483 228° Southwest 402 463 32,000  Level Los Angeles Center
09:00AM 35.1900 -115.9481 227° Southwest 400 460 32,000  Level Los Angeles Center
09:01AM 35.1150 -116.0458 227° Southwest 396 456 32,000  Level Los Angeles Center
09:02AM 35.0414 -116.1439 227° Southwest 394 453 32,000  Level Los Angeles Center
09:03AM 34.9664 -116.2408 227° Southwest 393 452 32,000  Level Los Angeles Center
09:04AM 34.8914 -116.3378 227° Southwest 392 451 32,000  Level Los Angeles Center
09:05AM 34.8167 -116.4356 227° Southwest 395 455 32,000  Level Los Angeles Center
09:06AM 34.7319 -116.5225 220° Southwest 397 457 32,000  Level Los Angeles Center
09:07AM 34.6431 -116.6056 218° Southwest 402 463 32,000  Level Los Angeles Center
09:08AM 34.5536 -116.6906 218° Southwest 406 467 32,000 -720 Level Los Angeles Center
09:09AM 34.4653 -116.7722 217° Southwest 399 459 30,600 -2,460 Descending Los Angeles Center
09:10AM 34.3739 -116.8569 217° Southwest 410 472 27,100 -3,360 Descending Los Angeles Center
09:12AM 34.2650 -116.9600 218° Southwest 412 474 23,200 -3,180 Descending Los Angeles Center
09:13AM 34.1758 -117.0439 218° Southwest 406 467 20,000 -2,280 Descending Los Angeles Center
09:13AM 34.1167 -117.1000 218° Southwest 374 430 19,600 -1,200 Descending Southern California TRACON
09:14AM 34.0500 -117.1500 212° Southwest 345 397 18,300 -960 Descending Southern California TRACON
09:15AM 33.9667 -117.1667 189° South 299 344 17,700 -1,080 Descending Southern California TRACON
09:16AM 33.9000 -117.2167 212° Southwest 279 321 16,100 -900 Descending Southern California TRACON
09:17AM 33.9333 -117.2667 309° West 250 288 16,000 -60 Descending Southern California TRACON
09:18AM 34.0167 -117.2833 351° North 262 302 16,000 -660 Level Southern California TRACON
09:19AM 34.0500 -117.3333 309° West 253 291 14,800 -1,380 Descending Southern California TRACON
09:20AM 34.0333 -117.4167 256° West 251 289 13,400 -1,560 Descending Southern California TRACON
09:21AM 34.0333 -117.5167 270° West 257 296 11,700 -1,560 Descending Southern California TRACON
09:22AM 34.0167 -117.6000 256° West 310 357 10,300 -900 Descending Southern California TRACON
09:23AM 34.0000 -117.6833 256° West 268 308 10,000 -600 Descending Southern California TRACON
09:24AM 34.0000 -117.7667 270° West 261 300 9,100 -1,020 Descending Southern California TRACON
09:25AM 33.9833 -117.8500 256° West 253 291 8,000 -1,080 Descending Southern California TRACON
09:26AM 33.9833 -117.9333 270° West 267 307 7,100 -1,080 Descending Southern California TRACON
09:27AM 33.9667 -118.0167 256° West 260 299 6,000 -1,080 Descending Southern California TRACON
09:28AM 33.9667 -118.0833 270° West 250 288 5,200 -1,140 Descending Southern California TRACON
09:29AM 33.9667 -118.1667 270° West 221 254 4,000 -1,200 Descending Southern California TRACON